createdAt,value
2019-06-01T00:00:16.295Z,19.00
2019-06-01T00:02:51.255Z,18.90
2019-06-01T00:05:12.983Z,19.00
2019-06-01T00:07:40.484Z,18.90
2019-06-01T00:10:07.702Z,18.90
2019-06-01T00:12:34.292Z,18.90
2019-06-01T00:15:01.118Z,18.90
2019-06-01T00:17:27.771Z,18.90
2019-06-01T00:19:57.530Z,18.80
2019-06-01T00:22:24.116Z,18.90
2019-06-01T00:24:52.177Z,18.90
2019-06-01T00:27:19.053Z,18.90
2019-06-01T00:29:46.734Z,18.90
2019-06-01T00:32:13.407Z,18.90
2019-06-01T00:34:41.190Z,18.90
2019-06-01T00:37:07.959Z,18.80
2019-06-01T00:39:34.448Z,18.80
2019-06-01T00:42:01.206Z,18.70
2019-06-01T00:44:28.390Z,18.70
2019-06-01T00:46:54.899Z,18.70
2019-06-01T00:49:21.427Z,18.70
2019-06-01T00:51:49.010Z,18.70
2019-06-01T00:54:15.730Z,18.70
2019-06-01T00:56:43.482Z,18.70
2019-06-01T00:59:10.169Z,18.70
2019-06-01T01:01:36.594Z,18.70
2019-06-01T01:04:03.497Z,18.70
2019-06-01T01:06:29.912Z,18.60
2019-06-01T01:08:56.544Z,18.60
2019-06-01T01:11:23.006Z,18.60
2019-06-01T01:13:49.297Z,18.60
2019-06-01T01:16:15.986Z,18.60
2019-06-01T01:18:42.393Z,18.60
2019-06-01T01:21:09.657Z,18.50
2019-06-01T01:23:36.102Z,18.50
2019-06-01T01:26:02.647Z,18.50
2019-06-01T01:28:39.974Z,18.50
2019-06-01T01:31:13.743Z,18.50
2019-06-01T01:33:34.878Z,18.40
2019-06-01T01:36:01.434Z,18.50
2019-06-01T01:38:27.937Z,18.50
2019-06-01T01:40:54.491Z,18.50
2019-06-01T01:43:20.887Z,18.40
2019-06-01T01:45:48.585Z,18.40
2019-06-01T01:48:15.125Z,18.40
2019-06-01T01:50:42.453Z,18.40
2019-06-01T01:53:09.185Z,18.30
2019-06-01T01:55:35.781Z,18.30
2019-06-01T01:58:02.498Z,18.30
2019-06-01T02:00:35.398Z,18.30
2019-06-01T02:03:02.415Z,18.30
2019-06-01T02:05:29.189Z,18.30
2019-06-01T02:07:56.968Z,18.30
2019-06-01T02:10:23.678Z,18.30
2019-06-01T02:13:09.852Z,18.30
2019-06-01T02:15:39.091Z,18.20
2019-06-01T02:18:05.745Z,18.20
2019-06-01T02:20:32.433Z,18.20
2019-06-01T02:23:09.484Z,18.20
2019-06-01T02:25:36.436Z,18.30
2019-06-01T02:28:03.792Z,18.20
2019-06-01T02:30:30.350Z,18.20
2019-06-01T02:32:58.388Z,18.20
2019-06-01T02:35:25.794Z,18.20
2019-06-01T02:37:52.380Z,18.10
2019-06-01T02:40:19.530Z,18.10
2019-06-01T02:43:06.651Z,18.10
2019-06-01T02:45:33.866Z,18.10
2019-06-01T02:48:01.690Z,18.10
2019-06-01T02:50:28.883Z,18.10
2019-06-01T02:52:55.626Z,18.00
2019-06-01T02:55:22.722Z,18.10
2019-06-01T02:57:49.371Z,18.10
2019-06-01T03:00:18.549Z,18.10
2019-06-01T03:02:45.362Z,18.00
2019-06-01T03:05:23.625Z,18.00
2019-06-01T03:07:50.943Z,18.00
2019-06-01T03:10:17.563Z,18.00
2019-06-01T03:12:44.937Z,18.00
2019-06-01T03:15:16.245Z,17.90
2019-06-01T03:17:49.062Z,18.00
2019-06-01T03:20:18.562Z,17.90
2019-06-01T03:22:50.985Z,17.80
2019-06-01T03:25:18.109Z,17.90
2019-06-01T03:27:47.842Z,17.90
2019-06-01T03:30:18.092Z,17.80
2019-06-01T03:32:44.596Z,17.80
2019-06-01T03:35:13.111Z,17.80
2019-06-01T03:37:40.160Z,17.80
2019-06-01T03:40:15.845Z,17.70
2019-06-01T03:42:35.450Z,17.80
2019-06-01T03:45:03.522Z,17.80
2019-06-01T03:47:31.290Z,17.80
2019-06-01T03:49:58.998Z,17.80
2019-06-01T03:52:25.515Z,17.80
2019-06-01T03:54:51.836Z,17.80
2019-06-01T03:57:18.238Z,17.80
2019-06-01T03:59:44.571Z,17.80
2019-06-01T04:02:11.298Z,17.80
2019-06-01T04:04:37.816Z,17.80
2019-06-01T04:07:04.226Z,17.70
2019-06-01T04:09:30.745Z,17.80
2019-06-01T04:11:57.159Z,17.80
2019-06-01T04:14:23.590Z,17.80
2019-06-01T04:16:57.917Z,17.80
2019-06-01T04:19:27.485Z,17.90
2019-06-01T04:21:54.035Z,17.90
2019-06-01T04:24:20.646Z,17.90
2019-06-01T04:26:47.225Z,17.90
2019-06-01T04:29:13.637Z,17.90
2019-06-01T04:31:40.289Z,17.90
2019-06-01T04:34:06.815Z,18.00
2019-06-01T04:36:34.509Z,18.00
2019-06-01T04:39:01.043Z,18.00
2019-06-01T04:41:27.578Z,18.00
2019-06-01T04:43:54.206Z,18.00
2019-06-01T04:46:22.036Z,18.00
2019-06-01T04:48:48.902Z,18.10
2019-06-01T04:51:15.329Z,18.10
2019-06-01T04:53:41.882Z,18.10
2019-06-01T04:56:09.063Z,18.20
2019-06-01T04:58:35.597Z,18.20
2019-06-01T05:01:04.778Z,18.30
2019-06-01T05:03:31.547Z,18.30
2019-06-01T05:06:00.861Z,18.30
2019-06-01T05:08:27.270Z,18.40
2019-06-01T05:10:53.697Z,18.40
2019-06-01T05:13:20.229Z,18.50
2019-06-01T05:15:46.654Z,18.50
2019-06-01T05:18:14.244Z,18.60
2019-06-01T05:20:41.712Z,18.60
2019-06-01T05:23:08.591Z,18.60
2019-06-01T05:25:35.145Z,18.70
2019-06-01T05:28:01.587Z,18.70
2019-06-01T05:30:28.067Z,18.70
2019-06-01T05:32:54.475Z,18.80
2019-06-01T05:35:21.121Z,18.90
2019-06-01T05:37:47.661Z,18.90
2019-06-01T05:40:14.792Z,19.00
2019-06-01T05:42:41.569Z,19.10
2019-06-01T05:45:09.138Z,19.20
2019-06-01T05:47:36.013Z,19.20
2019-06-01T05:50:07.743Z,19.30
2019-06-01T05:52:34.405Z,19.40
2019-06-01T05:55:01.603Z,19.50
2019-06-01T05:57:29.247Z,19.60
2019-06-01T05:59:55.886Z,19.70
2019-06-01T06:02:22.458Z,19.70
2019-06-01T06:04:49.111Z,19.80
2019-06-01T06:07:16.820Z,19.90
2019-06-01T06:09:43.236Z,19.80
2019-06-01T06:12:11.132Z,19.80
2019-06-01T06:14:51.707Z,19.80
2019-06-01T06:17:19.928Z,19.90
2019-06-01T06:19:46.506Z,19.90
2019-06-01T06:22:14.165Z,19.90
2019-06-01T06:24:46.139Z,19.90
2019-06-01T06:27:14.423Z,20.00
2019-06-01T06:29:41.062Z,20.00
2019-06-01T06:32:09.228Z,20.00
2019-06-01T06:34:36.811Z,20.10
2019-06-01T06:37:03.354Z,20.20
2019-06-01T06:39:42.511Z,20.30
2019-06-01T06:42:09.015Z,20.30
2019-06-01T06:44:35.407Z,20.30
2019-06-01T06:47:02.601Z,20.30
2019-06-01T06:49:29.087Z,20.40
2019-06-01T06:51:56.545Z,20.40
2019-06-01T06:54:23.899Z,20.40
2019-06-01T06:56:50.662Z,20.40
2019-06-01T06:59:18.486Z,20.50
2019-06-01T07:01:53.791Z,20.60
2019-06-01T07:04:21.388Z,20.60
2019-06-01T07:06:47.853Z,20.70
2019-06-01T07:09:14.929Z,20.70
2019-06-01T07:12:01.344Z,20.80
2019-06-01T07:14:27.891Z,20.90
2019-06-01T07:16:54.399Z,20.90
2019-06-01T07:19:21.555Z,21.00
2019-06-01T07:21:48.221Z,21.00
2019-06-01T07:24:14.732Z,21.00
2019-06-01T07:26:41.287Z,21.00
2019-06-01T07:29:07.696Z,21.00
2019-06-01T07:31:34.114Z,21.10
2019-06-01T07:34:00.662Z,21.10
2019-06-01T07:36:28.604Z,21.10
2019-06-01T07:38:55.452Z,21.10
2019-06-01T07:41:22.566Z,21.20
2019-06-01T07:43:49.419Z,21.20
2019-06-01T07:46:16.038Z,21.20
2019-06-01T07:48:42.675Z,21.30
2019-06-01T07:51:09.202Z,21.30
2019-06-01T07:53:35.879Z,21.40
2019-06-01T07:56:02.422Z,21.50
2019-06-01T07:58:29.016Z,21.50
2019-06-01T08:00:55.461Z,21.50
2019-06-01T08:03:23.264Z,21.50
2019-06-01T08:05:50.490Z,21.70
2019-06-01T08:08:16.986Z,21.70
2019-06-01T08:10:43.596Z,21.70
2019-06-01T08:13:09.928Z,21.80
2019-06-01T08:15:36.462Z,21.90
2019-06-01T08:18:03.230Z,21.90
2019-06-01T08:20:30.347Z,21.90
2019-06-01T08:22:57.175Z,21.90
2019-06-01T08:25:24.269Z,22.10
2019-06-01T08:28:04.122Z,22.10
2019-06-01T08:30:30.771Z,22.20
2019-06-01T08:32:57.283Z,22.20
2019-06-01T08:35:24.857Z,22.20
2019-06-01T08:37:51.619Z,22.30
2019-06-01T08:40:18.469Z,22.40
2019-06-01T08:42:45.397Z,22.40
2019-06-01T08:45:12.049Z,22.40
2019-06-01T08:47:38.675Z,22.40
2019-06-01T08:50:06.230Z,22.40
2019-06-01T08:52:32.719Z,22.40
2019-06-01T08:55:00.070Z,22.50
2019-06-01T08:57:26.494Z,22.50
2019-06-01T08:59:53.023Z,22.50
2019-06-01T09:02:19.549Z,22.50
2019-06-01T09:04:46.071Z,22.50
2019-06-01T09:07:12.798Z,22.60
2019-06-01T09:09:39.413Z,22.70
2019-06-01T09:12:05.830Z,22.80
2019-06-01T09:14:33.462Z,22.70
2019-06-01T09:17:00.311Z,22.80
2019-06-01T09:19:27.876Z,22.80
2019-06-01T09:22:07.454Z,22.80
2019-06-01T09:24:34.013Z,22.90
2019-06-01T09:27:00.424Z,22.90
2019-06-01T09:29:27.758Z,22.90
2019-06-01T09:31:54.333Z,22.90
2019-06-01T09:34:21.859Z,22.90
2019-06-01T09:36:48.499Z,23.00
2019-06-01T09:39:15.196Z,23.00
2019-06-01T09:41:41.840Z,23.10
2019-06-01T09:44:08.138Z,23.10
2019-06-01T09:46:35.629Z,23.20
2019-06-01T09:49:22.021Z,23.20
2019-06-01T09:51:48.468Z,23.20
2019-06-01T09:54:14.940Z,23.30
2019-06-01T09:56:41.266Z,23.20
2019-06-01T09:59:07.767Z,23.20
2019-06-01T10:01:38.871Z,23.30
2019-06-01T10:04:07.464Z,23.40
2019-06-01T10:06:34.716Z,23.60
2019-06-01T10:09:01.796Z,23.70
2019-06-01T10:11:30.243Z,23.60
2019-06-01T10:13:56.797Z,23.60
2019-06-01T10:16:23.171Z,23.70
2019-06-01T10:18:49.549Z,23.80
2019-06-01T10:21:15.923Z,23.80
2019-06-01T10:23:42.822Z,23.80
2019-06-01T10:26:09.373Z,23.80
2019-06-01T10:28:36.055Z,23.90
2019-06-01T10:31:15.657Z,24.00
2019-06-01T10:33:43.295Z,24.00
2019-06-01T10:36:19.707Z,24.10
2019-06-01T10:38:39.376Z,24.10
2019-06-01T10:41:06.008Z,24.10
2019-06-01T10:43:33.700Z,24.00
2019-06-01T10:46:00.375Z,24.00
2019-06-01T10:48:38.085Z,24.10
2019-06-01T10:51:19.477Z,24.00
2019-06-01T10:53:45.905Z,24.00
2019-06-01T10:56:12.378Z,24.10
2019-06-01T10:58:54.544Z,24.20
2019-06-01T11:01:07.276Z,24.20
2019-06-01T11:03:44.323Z,24.30
2019-06-01T11:06:12.416Z,24.40
2019-06-01T11:08:39.060Z,24.40
2019-06-01T11:11:05.876Z,24.40
2019-06-01T11:13:33.057Z,24.40
2019-06-01T11:15:59.762Z,24.40
2019-06-01T11:18:26.325Z,24.30
2019-06-01T11:21:12.641Z,24.30
2019-06-01T11:23:42.754Z,24.20
2019-06-01T11:26:07.664Z,24.20
2019-06-01T11:28:36.068Z,24.30
2019-06-01T11:31:04.250Z,24.50
2019-06-01T11:33:42.044Z,24.50
2019-06-01T11:36:08.689Z,24.50
2019-06-01T11:38:36.297Z,24.50
2019-06-01T11:41:18.471Z,24.60
2019-06-01T11:43:45.877Z,24.60
2019-06-01T11:46:12.811Z,24.50
2019-06-01T11:48:39.347Z,24.60
2019-06-01T11:51:06.068Z,24.70
2019-06-01T11:53:32.730Z,24.60
2019-06-01T11:55:59.024Z,24.70
2019-06-01T11:58:25.658Z,24.70
2019-06-01T12:00:53.082Z,24.80
2019-06-01T12:03:20.639Z,24.80
2019-06-01T12:05:47.189Z,24.70
2019-06-01T12:08:13.578Z,24.80
2019-06-01T12:10:41.078Z,24.70
2019-06-01T12:13:07.680Z,24.60
2019-06-01T12:15:34.197Z,24.70
2019-06-01T12:18:00.620Z,24.70
2019-06-01T12:20:27.139Z,24.90
2019-06-01T12:22:53.629Z,24.90
2019-06-01T12:25:19.976Z,24.90
2019-06-01T12:27:46.683Z,24.90
2019-06-01T12:30:14.026Z,25.10
2019-06-01T12:32:41.808Z,25.20
2019-06-01T12:35:09.196Z,25.30
2019-06-01T12:37:55.055Z,25.40
2019-06-01T12:40:07.784Z,25.40
2019-06-01T12:42:33.967Z,25.40
2019-06-01T12:45:00.357Z,25.30
2019-06-01T12:47:26.907Z,25.30
2019-06-01T12:49:53.443Z,25.20
2019-06-01T12:52:20.094Z,25.40
2019-06-01T12:54:46.778Z,25.50
2019-06-01T12:57:13.438Z,25.50
2019-06-01T12:59:41.065Z,25.50
2019-06-01T13:02:08.432Z,25.60
2019-06-01T13:04:34.847Z,25.50
2019-06-01T13:07:01.309Z,25.60
2019-06-01T13:09:28.491Z,25.80
2019-06-01T13:11:55.521Z,26.00
2019-06-01T13:14:21.935Z,25.90
2019-06-01T13:17:07.170Z,25.70
2019-06-01T13:19:38.174Z,25.70
2019-06-01T13:22:04.651Z,25.90
2019-06-01T13:24:31.246Z,25.90
2019-06-01T13:26:57.885Z,26.00
2019-06-01T13:29:24.209Z,26.10
2019-06-01T13:31:50.768Z,26.20
2019-06-01T13:34:17.358Z,26.20
2019-06-01T13:36:44.576Z,26.10
2019-06-01T13:39:11.273Z,26.10
2019-06-01T13:41:57.530Z,26.30
2019-06-01T13:44:23.835Z,26.30
2019-06-01T13:46:51.426Z,26.30
2019-06-01T13:49:18.015Z,26.20
2019-06-01T13:51:45.888Z,26.30
2019-06-01T13:54:12.629Z,26.50
2019-06-01T13:56:39.060Z,26.50
2019-06-01T13:59:05.673Z,26.60
2019-06-01T14:01:32.202Z,26.60
2019-06-01T14:03:58.535Z,26.50
2019-06-01T14:06:45.175Z,26.60
2019-06-01T14:09:11.742Z,26.60
2019-06-01T14:11:38.194Z,26.80
2019-06-01T14:14:04.700Z,26.90
2019-06-01T14:16:31.087Z,27.10
2019-06-01T14:18:57.697Z,27.20
2019-06-01T14:21:24.110Z,27.20
2019-06-01T14:23:51.882Z,27.00
2019-06-01T14:26:18.967Z,27.00
2019-06-01T14:28:46.048Z,26.90
2019-06-01T14:31:32.583Z,26.90
2019-06-01T14:33:59.016Z,27.10
2019-06-01T14:36:25.337Z,27.00
2019-06-01T14:38:53.454Z,27.00
2019-06-01T14:41:19.957Z,27.10
2019-06-01T14:44:06.331Z,27.00
2019-06-01T14:46:32.897Z,27.20
2019-06-01T14:48:59.411Z,27.20
2019-06-01T14:51:25.710Z,27.30
2019-06-01T14:53:53.603Z,27.50
2019-06-01T14:56:20.185Z,27.50
2019-06-01T14:59:06.523Z,27.50
2019-06-01T15:01:33.335Z,27.30
2019-06-01T15:04:01.052Z,27.70
2019-06-01T15:06:27.465Z,28.30
2019-06-01T15:09:11.964Z,28.70
2019-06-01T15:11:22.184Z,28.70
2019-06-01T15:13:48.619Z,28.50
2019-06-01T15:16:15.093Z,28.30
2019-06-01T15:18:41.623Z,28.20
2019-06-01T15:21:08.149Z,28.10
2019-06-01T15:23:34.549Z,28.20
2019-06-01T15:26:00.881Z,28.10
2019-06-01T15:28:27.154Z,28.10
2019-06-01T15:30:54.846Z,28.10
2019-06-01T15:33:21.409Z,28.00
2019-06-01T15:35:49.173Z,27.90
2019-06-01T15:38:15.726Z,27.80
2019-06-01T15:40:42.401Z,27.70
2019-06-01T15:43:11.498Z,27.70
2019-06-01T15:45:41.228Z,27.80
2019-06-01T15:48:06.565Z,27.70
2019-06-01T15:50:32.991Z,27.80
2019-06-01T15:52:59.528Z,27.90
2019-06-01T15:55:26.194Z,27.90
2019-06-01T15:57:52.624Z,28.00
2019-06-01T16:00:20.150Z,28.00
2019-06-01T16:02:46.537Z,28.00
2019-06-01T16:05:13.626Z,27.90
2019-06-01T16:07:59.868Z,28.00
2019-06-01T16:10:26.385Z,28.00
2019-06-01T16:12:53.377Z,28.40
2019-06-01T16:15:30.610Z,28.20
2019-06-01T16:17:57.941Z,28.10
2019-06-01T16:20:24.581Z,28.20
2019-06-01T16:22:50.914Z,28.20
2019-06-01T16:25:18.667Z,28.30
2019-06-01T16:27:56.613Z,28.20
2019-06-01T16:30:23.411Z,28.10
2019-06-01T16:32:49.963Z,28.30
2019-06-01T16:35:16.610Z,28.30
2019-06-01T16:38:04.203Z,28.30
2019-06-01T16:40:31.268Z,28.10
2019-06-01T16:42:57.848Z,28.00
2019-06-01T16:45:24.277Z,28.10
2019-06-01T16:47:51.007Z,28.10
2019-06-01T16:50:18.005Z,28.30
2019-06-01T16:52:44.595Z,28.20
2019-06-01T16:55:31.641Z,28.10
2019-06-01T16:57:58.935Z,28.10
2019-06-01T17:00:25.567Z,27.90
2019-06-01T17:02:52.279Z,27.80
2019-06-01T17:05:19.440Z,27.80
2019-06-01T17:07:46.180Z,27.90
2019-06-01T17:10:25.866Z,28.10
2019-06-01T17:12:43.544Z,28.20
2019-06-01T17:15:11.381Z,28.20
2019-06-01T17:17:37.857Z,28.10
2019-06-01T17:20:05.542Z,27.80
2019-06-01T17:22:32.368Z,27.90
2019-06-01T17:24:59.665Z,27.90
2019-06-01T17:27:26.351Z,27.90
2019-06-01T17:29:52.984Z,27.90
2019-06-01T17:32:24.259Z,27.90
2019-06-01T17:34:48.083Z,27.80
2019-06-01T17:37:14.661Z,27.70
2019-06-01T17:39:41.214Z,27.50
2019-06-01T17:42:08.666Z,27.50
2019-06-01T17:44:39.036Z,27.50
2019-06-01T17:47:06.209Z,27.30
2019-06-01T17:49:33.091Z,27.20
2019-06-01T17:51:59.594Z,27.20
2019-06-01T17:54:26.147Z,27.30
2019-06-01T17:56:52.783Z,27.20
2019-06-01T17:59:19.357Z,27.20
2019-06-01T18:01:46.021Z,27.10
2019-06-01T18:04:12.506Z,27.00
2019-06-01T18:06:52.164Z,26.90
2019-06-01T18:09:18.952Z,26.70
2019-06-01T18:11:45.427Z,26.60
2019-06-01T18:14:12.481Z,26.40
2019-06-01T18:16:38.934Z,26.40
2019-06-01T18:19:06.331Z,26.30
2019-06-01T18:21:33.528Z,26.10
2019-06-01T18:24:04.305Z,26.10
2019-06-01T18:26:30.153Z,25.90
2019-06-01T18:28:56.835Z,25.70
2019-06-01T18:31:23.420Z,25.60
2019-06-01T18:33:53.274Z,25.50
2019-06-01T18:36:18.324Z,25.30
2019-06-01T18:38:45.943Z,25.20
2019-06-01T18:41:18.617Z,25.10
2019-06-01T18:43:41.008Z,25.00
2019-06-01T18:46:08.092Z,24.90
2019-06-01T18:48:47.738Z,24.70
2019-06-01T18:51:14.470Z,24.70
2019-06-01T18:53:41.092Z,24.60
2019-06-01T18:56:08.163Z,24.50
2019-06-01T18:58:34.841Z,24.50
2019-06-01T19:01:01.272Z,24.40
2019-06-01T19:03:27.872Z,24.40
2019-06-01T19:05:54.270Z,24.30
2019-06-01T19:08:20.800Z,24.20
2019-06-01T19:10:48.213Z,24.10
2019-06-01T19:13:16.003Z,24.00
2019-06-01T19:15:42.597Z,23.90
2019-06-01T19:18:10.465Z,23.90
2019-06-01T19:20:36.932Z,23.90
2019-06-01T19:23:03.675Z,23.70
2019-06-01T19:25:30.334Z,23.90
2019-06-01T19:27:56.820Z,23.70
2019-06-01T19:30:36.091Z,23.70
2019-06-01T19:33:04.487Z,23.70
2019-06-01T19:35:32.213Z,23.60
2019-06-01T19:38:00.271Z,23.60
2019-06-01T19:40:35.361Z,23.50
2019-06-01T19:43:02.146Z,23.60
2019-06-01T19:45:29.706Z,23.50
2019-06-01T19:47:56.559Z,23.40
2019-06-01T19:50:23.033Z,23.40
2019-06-01T19:53:00.386Z,23.40
2019-06-01T19:55:26.963Z,23.30
2019-06-01T19:57:53.579Z,23.30
2019-06-01T20:00:20.186Z,23.20
2019-06-01T20:02:46.691Z,23.20
2019-06-01T20:05:14.573Z,23.20
2019-06-01T20:07:41.147Z,23.20
2019-06-01T20:10:10.147Z,23.20
2019-06-01T20:12:36.954Z,23.10
2019-06-01T20:15:06.993Z,23.10
2019-06-01T20:17:33.500Z,23.10
2019-06-01T20:19:59.965Z,23.10
2019-06-01T20:22:26.668Z,23.10
2019-06-01T20:24:53.071Z,23.10
2019-06-01T20:27:19.653Z,23.10
2019-06-01T20:29:46.310Z,23.10
2019-06-01T20:32:23.689Z,23.10
2019-06-01T20:34:50.178Z,23.10
2019-06-01T20:37:18.031Z,23.00
2019-06-01T20:39:44.808Z,23.00
2019-06-01T20:42:23.266Z,23.00
2019-06-01T20:44:59.612Z,23.00
2019-06-01T20:47:26.328Z,22.90
2019-06-01T20:49:54.063Z,22.90
2019-06-01T20:52:20.944Z,22.90
2019-06-01T20:54:47.636Z,22.90
2019-06-01T20:57:15.243Z,22.80
2019-06-01T21:00:03.239Z,22.90
2019-06-01T21:02:30.960Z,22.90
2019-06-01T21:04:57.468Z,22.80
2019-06-01T21:07:36.931Z,22.80
2019-06-01T21:10:06.025Z,22.80
2019-06-01T21:12:44.768Z,22.80
2019-06-01T21:15:00.916Z,22.80
2019-06-01T21:17:27.620Z,22.80
2019-06-01T21:19:53.955Z,22.80
2019-06-01T21:22:20.683Z,22.90
2019-06-01T21:24:47.481Z,22.90
2019-06-01T21:27:14.455Z,22.80
2019-06-01T21:29:41.068Z,22.80
2019-06-01T21:32:09.495Z,22.80
2019-06-01T21:34:35.892Z,22.80
2019-06-01T21:37:02.573Z,22.80
2019-06-01T21:39:30.266Z,22.80
2019-06-01T21:41:56.545Z,22.80
2019-06-01T21:44:23.728Z,22.80
2019-06-01T21:46:50.444Z,22.80
2019-06-01T21:49:17.692Z,22.80
2019-06-01T21:51:44.389Z,22.80
2019-06-01T21:54:10.874Z,22.80
2019-06-01T21:56:37.706Z,22.70
2019-06-01T21:59:04.403Z,22.70
2019-06-01T22:01:30.824Z,22.80
2019-06-01T22:03:57.388Z,22.80
2019-06-01T22:06:25.557Z,22.70
2019-06-01T22:08:53.591Z,22.70
2019-06-01T22:11:21.517Z,22.70
2019-06-01T22:13:49.277Z,22.60
2019-06-01T22:16:15.845Z,22.60
2019-06-01T22:18:53.321Z,22.60
2019-06-01T22:21:19.897Z,22.60
2019-06-01T22:23:46.361Z,22.50
2019-06-01T22:26:12.779Z,22.50
2019-06-01T22:28:39.076Z,22.50
2019-06-01T22:31:05.507Z,22.40
2019-06-01T22:33:32.045Z,22.40
2019-06-01T22:35:58.463Z,22.30
2019-06-01T22:38:25.803Z,22.30
2019-06-01T22:40:52.374Z,22.30
2019-06-01T22:43:37.079Z,22.30
2019-06-01T22:45:47.063Z,22.30
2019-06-01T22:48:14.355Z,22.30
2019-06-01T22:50:41.124Z,22.30
2019-06-01T22:53:07.601Z,22.30
2019-06-01T22:55:34.145Z,22.20
2019-06-01T22:58:00.697Z,22.20
2019-06-01T23:00:27.839Z,22.20
2019-06-01T23:02:54.827Z,22.20
2019-06-01T23:05:22.885Z,22.20
2019-06-01T23:07:49.568Z,22.20
2019-06-01T23:10:16.143Z,22.20
2019-06-01T23:12:42.576Z,22.20
2019-06-01T23:15:09.125Z,22.20
2019-06-01T23:17:35.635Z,22.20
2019-06-01T23:20:04.807Z,22.10
2019-06-01T23:22:32.569Z,22.10
2019-06-01T23:24:58.943Z,22.10
2019-06-01T23:27:26.207Z,22.10
2019-06-01T23:29:53.398Z,22.10
2019-06-01T23:32:19.755Z,22.00
2019-06-01T23:34:46.099Z,22.00
2019-06-01T23:37:12.801Z,22.00
2019-06-01T23:39:39.223Z,21.90
2019-06-01T23:42:06.267Z,21.90
2019-06-01T23:44:35.002Z,21.80
2019-06-01T23:47:01.888Z,21.80
2019-06-01T23:49:29.249Z,21.80
2019-06-01T23:51:56.041Z,21.80
2019-06-01T23:54:23.493Z,21.70
2019-06-01T23:56:50.061Z,21.70
2019-06-01T23:59:17.912Z,21.70
